createdAt,value
2024-04-13T00:01:59.045Z,86.13
2024-04-13T00:04:26.105Z,86.19
2024-04-13T00:06:53.031Z,85.97
2024-04-13T00:09:20.924Z,85.98
2024-04-13T00:11:47.837Z,86.21
2024-04-13T00:14:14.655Z,86.25
2024-04-13T00:16:44.205Z,86.11
2024-04-13T00:19:12.860Z,86.21
2024-04-13T00:21:40.190Z,86.33
2024-04-13T00:24:07.341Z,86.13
2024-04-13T00:26:35.761Z,86.24
2024-04-13T00:29:06.698Z,85.94
2024-04-13T00:31:33.919Z,85.99
2024-04-13T00:34:03.830Z,86.14
2024-04-13T00:36:30.879Z,86.09
2024-04-13T00:38:57.846Z,86.02
2024-04-13T00:41:24.652Z,86.23
2024-04-13T00:43:51.621Z,86.25
2024-04-13T00:46:24.869Z,86.10
2024-04-13T00:48:53.564Z,85.73
2024-04-13T00:51:24.831Z,86.27
2024-04-13T00:53:54.000Z,86.22
2024-04-13T00:56:22.354Z,86.16
2024-04-13T00:58:49.673Z,86.10
2024-04-13T01:01:17.610Z,86.11
2024-04-13T01:03:46.036Z,85.93
2024-04-13T01:06:13.426Z,86.18
2024-04-13T01:08:42.924Z,86.16
2024-04-13T01:11:10.327Z,86.18
2024-04-13T01:13:41.985Z,86.11
2024-04-13T01:16:08.884Z,85.91
2024-04-13T01:18:35.805Z,85.90
2024-04-13T01:21:03.283Z,86.33
2024-04-13T01:23:31.573Z,86.13
2024-04-13T01:26:01.427Z,86.14
2024-04-13T01:28:33.110Z,85.94
2024-04-13T01:31:00.006Z,86.08
2024-04-13T01:33:26.956Z,86.24
2024-04-13T01:35:57.697Z,86.22
2024-04-13T01:38:24.513Z,86.32
2024-04-13T01:40:51.411Z,86.48
2024-04-13T01:43:20.882Z,86.15
2024-04-13T01:45:47.784Z,86.25
2024-04-13T01:48:14.651Z,86.15
2024-04-13T01:50:41.460Z,86.05
2024-04-13T01:53:08.257Z,86.14
2024-04-13T01:55:35.102Z,86.29
2024-04-13T01:58:01.962Z,86.22
2024-04-13T02:00:31.579Z,86.13
2024-04-13T02:02:58.492Z,86.23
2024-04-13T02:05:25.353Z,86.31
2024-04-13T02:07:53.267Z,86.29
2024-04-13T02:10:20.368Z,86.31
2024-04-13T02:12:47.462Z,86.36
2024-04-13T02:15:14.398Z,86.43
2024-04-13T02:17:45.239Z,86.37
2024-04-13T02:20:16.091Z,86.49
2024-04-13T02:22:42.944Z,86.41
2024-04-13T02:25:15.745Z,86.44
2024-04-13T02:27:43.265Z,86.35
2024-04-13T02:30:10.731Z,86.25
2024-04-13T02:32:38.879Z,86.36
2024-04-13T02:35:08.887Z,86.33
2024-04-13T02:37:35.735Z,86.52
2024-04-13T02:40:09.263Z,86.48
2024-04-13T02:42:40.183Z,86.52
2024-04-13T02:45:07.258Z,86.41
2024-04-13T02:47:34.225Z,86.64
2024-04-13T02:50:01.044Z,86.41
2024-04-13T02:52:32.198Z,86.22
2024-04-13T02:54:59.095Z,86.47
2024-04-13T02:57:27.579Z,86.26
2024-04-13T02:59:54.439Z,86.55
2024-04-13T03:02:21.316Z,86.68
2024-04-13T03:04:51.684Z,86.62
2024-04-13T03:07:18.592Z,86.72
2024-04-13T03:09:49.573Z,86.70
2024-04-13T03:12:19.094Z,86.57
2024-04-13T03:14:46.142Z,86.46
2024-04-13T03:17:12.973Z,86.47
2024-04-13T03:19:40.289Z,86.88
2024-04-13T03:22:07.451Z,86.74
2024-04-13T03:24:35.662Z,86.50
2024-04-13T03:27:05.662Z,86.75
2024-04-13T03:29:32.535Z,86.96
2024-04-13T03:31:59.496Z,86.60
2024-04-13T03:34:27.489Z,86.83
2024-04-13T03:36:54.327Z,86.84
2024-04-13T03:39:23.158Z,86.95
2024-04-13T03:41:50.257Z,86.83
2024-04-13T03:44:19.854Z,86.67
2024-04-13T03:46:46.688Z,87.06
2024-04-13T03:49:13.674Z,87.14
2024-04-13T03:51:40.562Z,87.00
2024-04-13T03:54:07.576Z,86.75
2024-04-13T03:56:34.864Z,87.14
2024-04-13T03:59:01.686Z,87.03
2024-04-13T04:01:31.258Z,87.21
2024-04-13T04:03:58.190Z,86.99
2024-04-13T04:06:25.154Z,87.08
2024-04-13T04:08:52.015Z,87.11
2024-04-13T04:11:19.053Z,87.36
2024-04-13T04:13:45.955Z,87.60
2024-04-13T04:16:12.755Z,87.52
2024-04-13T04:18:45.243Z,87.52
2024-04-13T04:21:12.637Z,87.41
2024-04-13T04:23:39.460Z,87.54
2024-04-13T04:26:08.115Z,87.57
2024-04-13T04:28:35.004Z,87.40
2024-04-13T04:31:12.721Z,87.35
2024-04-13T04:33:42.295Z,87.36
2024-04-13T04:36:10.612Z,87.43
2024-04-13T04:38:38.088Z,87.45
2024-04-13T04:41:05.005Z,87.59
2024-04-13T04:43:31.857Z,87.27
2024-04-13T04:45:59.389Z,87.71
2024-04-13T04:48:26.400Z,87.56
2024-04-13T04:51:00.221Z,87.63
2024-04-13T04:53:30.166Z,87.63
2024-04-13T04:55:59.496Z,87.65
2024-04-13T04:58:27.023Z,87.66
2024-04-13T05:00:53.977Z,87.42
2024-04-13T05:03:20.899Z,87.63
2024-04-13T05:05:47.706Z,87.70
2024-04-13T05:08:17.835Z,87.32
2024-04-13T05:10:44.790Z,87.60
2024-04-13T05:13:11.672Z,87.61
2024-04-13T05:15:39.808Z,87.78
2024-04-13T05:18:06.981Z,87.72
2024-04-13T05:20:35.017Z,87.74
2024-04-13T05:23:02.585Z,88.02
2024-04-13T05:25:32.438Z,87.88
2024-04-13T05:27:59.250Z,87.87
2024-04-13T05:30:26.633Z,87.87
2024-04-13T05:32:53.677Z,87.94
2024-04-13T05:35:20.591Z,87.72
2024-04-13T05:37:47.867Z,87.75
2024-04-13T05:40:16.656Z,87.70
2024-04-13T05:42:46.150Z,87.58
2024-04-13T05:45:13.082Z,88.01
2024-04-13T05:47:41.310Z,87.88
2024-04-13T05:50:08.217Z,87.98
2024-04-13T05:52:35.049Z,87.84
2024-04-13T05:55:03.187Z,87.96
2024-04-13T05:57:30.642Z,87.81
2024-04-13T06:00:00.284Z,87.77
2024-04-13T06:02:27.811Z,87.86
2024-04-13T06:04:58.017Z,87.75
2024-04-13T06:07:24.927Z,87.95
2024-04-13T06:09:52.383Z,87.45
2024-04-13T06:12:20.184Z,87.57
2024-04-13T06:14:53.635Z,87.82
2024-04-13T06:17:23.104Z,87.43
2024-04-13T06:19:49.869Z,87.76
2024-04-13T06:22:21.666Z,87.53
2024-04-13T06:24:48.500Z,87.73
2024-04-13T06:27:15.392Z,87.97
2024-04-13T06:29:42.227Z,87.62
2024-04-13T06:32:09.028Z,87.59
2024-04-13T06:34:38.510Z,87.75
2024-04-13T06:37:05.446Z,87.71
2024-04-13T06:39:32.319Z,87.71
2024-04-13T06:41:59.234Z,87.64
2024-04-13T06:44:26.059Z,87.70
2024-04-13T06:46:53.019Z,87.46
2024-04-13T06:49:20.513Z,87.80
2024-04-13T06:51:50.012Z,87.59
2024-04-13T06:54:16.930Z,87.90
2024-04-13T06:56:43.879Z,87.74
2024-04-13T06:59:10.662Z,87.60
2024-04-13T07:01:37.474Z,87.69
2024-04-13T07:04:04.923Z,87.73
2024-04-13T07:06:36.094Z,87.68
2024-04-13T07:09:05.719Z,87.29
2024-04-13T07:11:32.549Z,87.42
2024-04-13T07:13:59.571Z,87.64
2024-04-13T07:16:26.424Z,87.59
2024-04-13T07:18:53.354Z,87.58
2024-04-13T07:21:20.263Z,87.37
2024-04-13T07:23:47.068Z,87.60
2024-04-13T07:26:16.522Z,87.80
2024-04-13T07:28:43.399Z,87.75
2024-04-13T07:31:10.238Z,87.43
2024-04-13T07:33:37.262Z,87.35
2024-04-13T07:36:04.709Z,87.58
2024-04-13T07:38:31.807Z,87.45
2024-04-13T07:40:58.663Z,87.17
2024-04-13T07:43:30.437Z,87.48
2024-04-13T07:45:57.291Z,87.36
2024-04-13T07:48:24.251Z,86.88
2024-04-13T07:50:51.164Z,87.10
2024-04-13T07:53:18.026Z,86.81
2024-04-13T07:55:45.022Z,86.83
2024-04-13T07:58:11.878Z,86.99
2024-04-13T08:00:42.569Z,86.84
2024-04-13T08:03:09.471Z,86.85
2024-04-13T08:05:36.337Z,86.99
2024-04-13T08:08:03.261Z,87.16
2024-04-13T08:10:30.063Z,87.03
2024-04-13T08:12:56.954Z,86.96
2024-04-13T08:15:23.859Z,86.81
2024-04-13T08:17:53.502Z,86.82
2024-04-13T08:20:20.383Z,86.91
2024-04-13T08:22:47.249Z,86.40
2024-04-13T08:25:14.143Z,86.63
2024-04-13T08:27:41.042Z,86.61
2024-04-13T08:30:08.577Z,86.59
2024-04-13T08:32:35.540Z,86.49
2024-04-13T08:35:07.124Z,86.57
2024-04-13T08:37:33.983Z,86.65
2024-04-13T08:40:00.837Z,86.31
2024-04-13T08:42:33.769Z,86.10
2024-04-13T08:45:00.836Z,86.20
2024-04-13T08:47:29.325Z,86.01
2024-04-13T08:49:59.174Z,86.04
2024-04-13T08:52:31.399Z,85.97
2024-04-13T08:54:58.486Z,85.74
2024-04-13T08:57:26.827Z,86.12
2024-04-13T08:59:54.204Z,85.86
2024-04-13T09:02:24.304Z,86.03
2024-04-13T09:04:55.264Z,85.73
2024-04-13T09:07:25.406Z,85.77
2024-04-13T09:09:58.653Z,85.51
2024-04-13T09:12:25.966Z,85.39
2024-04-13T09:14:53.236Z,85.74
2024-04-13T09:17:20.232Z,85.62
2024-04-13T09:19:47.451Z,85.31
2024-04-13T09:22:15.142Z,85.65
2024-04-13T09:24:42.333Z,85.60
2024-04-13T09:27:18.019Z,85.44
2024-04-13T09:29:45.011Z,85.05
2024-04-13T09:32:22.609Z,85.41
2024-04-13T09:34:49.467Z,85.28
2024-04-13T09:37:16.877Z,85.21
2024-04-13T09:39:46.303Z,85.38
2024-04-13T09:42:13.886Z,85.30
2024-04-13T09:44:43.366Z,85.05
2024-04-13T09:47:10.173Z,84.96
2024-04-13T09:49:37.064Z,85.18
2024-04-13T09:52:04.173Z,85.24
2024-04-13T09:54:31.119Z,85.06
2024-04-13T09:56:59.831Z,85.09
2024-04-13T09:59:32.785Z,84.83
2024-04-13T10:02:02.390Z,84.55
2024-04-13T10:04:29.481Z,84.66
2024-04-13T10:07:01.867Z,84.86
2024-04-13T10:09:32.383Z,84.61
2024-04-13T10:12:01.719Z,84.92
2024-04-13T10:14:30.038Z,84.76
2024-04-13T10:17:02.716Z,84.98
2024-04-13T10:19:32.446Z,85.05
2024-04-13T10:21:59.840Z,84.95
2024-04-13T10:24:28.829Z,85.10
2024-04-13T10:27:06.517Z,84.84
2024-04-13T10:29:41.741Z,84.54
2024-04-13T10:32:15.614Z,84.78
2024-04-13T10:34:45.438Z,84.29
2024-04-13T10:37:25.280Z,84.09
2024-04-13T10:39:55.675Z,84.37
2024-04-13T10:42:23.302Z,84.19
2024-04-13T10:44:50.672Z,84.23
2024-04-13T10:47:18.298Z,83.80
2024-04-13T10:49:54.918Z,83.74
2024-04-13T10:52:27.816Z,83.25
2024-04-13T10:54:56.650Z,83.59
2024-04-13T10:57:24.826Z,83.24
2024-04-13T10:59:52.189Z,82.77
2024-04-13T11:02:19.157Z,82.81
2024-04-13T11:04:48.643Z,82.35
2024-04-13T11:07:18.908Z,82.41
2024-04-13T11:09:46.833Z,82.71
2024-04-13T11:12:14.390Z,82.20
2024-04-13T11:14:41.368Z,82.07
2024-04-13T11:17:10.003Z,82.06
2024-04-13T11:19:37.668Z,82.11
2024-04-13T11:22:10.949Z,81.33
2024-04-13T11:24:38.245Z,81.08
2024-04-13T11:27:06.738Z,81.15
2024-04-13T11:29:33.993Z,81.41
2024-04-13T11:32:01.721Z,80.75
2024-04-13T11:34:28.783Z,80.42
2024-04-13T11:37:02.074Z,79.97
2024-04-13T11:39:34.264Z,79.79
2024-04-13T11:42:04.921Z,79.89
2024-04-13T11:44:31.754Z,79.70
2024-04-13T11:46:59.772Z,79.88
2024-04-13T11:49:30.129Z,79.52
2024-04-13T11:51:59.012Z,78.64
2024-04-13T11:54:26.116Z,77.64
2024-04-13T11:56:56.411Z,77.43
2024-04-13T11:59:23.822Z,77.41
2024-04-13T12:01:52.317Z,77.26
2024-04-13T12:04:19.222Z,77.20
2024-04-13T12:06:46.286Z,76.82
2024-04-13T12:09:13.099Z,76.69
2024-04-13T12:11:39.938Z,77.01
2024-04-13T12:14:09.365Z,76.69
2024-04-13T12:16:36.226Z,76.38
2024-04-13T12:19:05.292Z,75.71
2024-04-13T12:21:32.357Z,75.96
2024-04-13T12:24:01.469Z,74.67
2024-04-13T12:26:28.830Z,74.78
2024-04-13T12:28:55.715Z,74.45
2024-04-13T12:31:25.110Z,73.38
2024-04-13T12:33:51.909Z,73.89
2024-04-13T12:36:19.189Z,74.13
2024-04-13T12:38:46.075Z,74.08
2024-04-13T12:41:14.727Z,74.15
2024-04-13T12:43:41.974Z,73.87
2024-04-13T12:46:08.991Z,73.62
2024-04-13T12:48:38.628Z,73.41
2024-04-13T12:51:05.873Z,73.16
2024-04-13T12:53:32.729Z,72.78
2024-04-13T12:55:59.596Z,73.46
2024-04-13T12:58:26.647Z,73.22
2024-04-13T13:00:53.473Z,72.62
2024-04-13T13:03:20.347Z,72.75
2024-04-13T13:05:50.104Z,73.05
2024-04-13T13:08:16.970Z,72.91
2024-04-13T13:10:43.761Z,72.80
2024-04-13T13:13:10.671Z,72.66
2024-04-13T13:15:37.658Z,72.36
2024-04-13T13:18:04.943Z,71.94
2024-04-13T13:20:31.747Z,72.25
2024-04-13T13:23:01.271Z,72.43
2024-04-13T13:25:28.079Z,72.55
2024-04-13T13:27:57.074Z,72.08
2024-04-13T13:30:23.936Z,71.80
2024-04-13T13:32:50.975Z,71.62
2024-04-13T13:35:17.794Z,71.75
2024-04-13T13:37:44.626Z,71.81
2024-04-13T13:40:16.294Z,71.43
2024-04-13T13:42:43.180Z,71.35
2024-04-13T13:45:10.029Z,71.23
2024-04-13T13:47:37.023Z,71.07
2024-04-13T13:50:04.209Z,71.12
2024-04-13T13:52:31.822Z,71.04
2024-04-13T13:54:58.663Z,70.80
2024-04-13T13:57:28.139Z,70.83
2024-04-13T13:59:54.930Z,70.73
2024-04-13T14:02:24.192Z,70.84
2024-04-13T14:04:51.033Z,70.30
2024-04-13T14:07:17.902Z,70.32
2024-04-13T14:09:44.800Z,70.10
2024-04-13T14:12:11.648Z,70.14
2024-04-13T14:14:41.200Z,69.83
2024-04-13T14:17:08.089Z,69.63
2024-04-13T14:19:34.970Z,69.98
2024-04-13T14:22:01.770Z,69.72
2024-04-13T14:24:28.657Z,69.76
2024-04-13T14:26:55.505Z,69.71
2024-04-13T14:29:22.412Z,69.23
2024-04-13T14:31:52.082Z,69.39
2024-04-13T14:34:18.854Z,69.52
2024-04-13T14:36:46.537Z,69.47
2024-04-13T14:39:13.605Z,69.28
2024-04-13T14:41:40.471Z,69.27
2024-04-13T14:44:07.307Z,69.46
2024-04-13T14:46:36.642Z,68.99
2024-04-13T14:49:07.991Z,69.31
2024-04-13T14:51:34.920Z,68.93
2024-04-13T14:54:01.792Z,69.12
2024-04-13T14:56:28.665Z,68.30
2024-04-13T14:58:57.147Z,68.68
2024-04-13T15:01:24.022Z,68.65
2024-04-13T15:03:51.074Z,68.66
2024-04-13T15:06:21.695Z,68.49
2024-04-13T15:08:48.661Z,68.66
2024-04-13T15:11:16.174Z,68.47
2024-04-13T15:13:43.099Z,68.19
2024-04-13T15:16:10.086Z,67.83
2024-04-13T15:18:37.582Z,67.90
2024-04-13T15:21:05.196Z,67.75
2024-04-13T15:23:35.455Z,67.87
2024-04-13T15:26:02.254Z,67.78
2024-04-13T15:28:29.064Z,67.57
2024-04-13T15:30:56.464Z,67.10
2024-04-13T15:33:23.798Z,67.41
2024-04-13T15:35:50.675Z,67.25
2024-04-13T15:38:19.920Z,67.02
2024-04-13T15:40:49.629Z,66.87
2024-04-13T15:43:18.227Z,67.13
2024-04-13T15:45:45.043Z,67.00
2024-04-13T15:48:12.424Z,67.11
2024-04-13T15:50:39.298Z,66.80
2024-04-13T15:53:06.162Z,66.84
2024-04-13T15:55:33.165Z,66.43
2024-04-13T15:58:02.597Z,66.52
2024-04-13T16:00:29.456Z,66.25
2024-04-13T16:02:56.365Z,66.07
2024-04-13T16:05:23.251Z,66.11
2024-04-13T16:07:50.083Z,66.05
2024-04-13T16:10:18.266Z,66.38
2024-04-13T16:12:47.107Z,66.37
2024-04-13T16:15:16.811Z,66.47
2024-04-13T16:17:43.679Z,66.32
2024-04-13T16:20:10.632Z,66.91
2024-04-13T16:22:37.546Z,66.72
2024-04-13T16:25:04.951Z,66.96
2024-04-13T16:27:31.776Z,66.83
2024-04-13T16:29:58.627Z,66.75
2024-04-13T16:32:28.358Z,66.89
2024-04-13T16:34:55.303Z,67.06
2024-04-13T16:37:22.123Z,67.13
2024-04-13T16:39:48.932Z,67.36
2024-04-13T16:42:15.774Z,67.19
2024-04-13T16:44:42.654Z,67.27
2024-04-13T16:47:09.448Z,67.28
2024-04-13T16:49:38.900Z,67.56
2024-04-13T16:52:06.720Z,67.92
2024-04-13T16:54:33.669Z,67.84
2024-04-13T16:57:01.711Z,67.74
2024-04-13T16:59:28.518Z,67.82
2024-04-13T17:01:55.455Z,68.05
2024-04-13T17:04:22.448Z,68.11
2024-04-13T17:06:51.992Z,68.12
2024-04-13T17:09:20.885Z,68.45
2024-04-13T17:11:47.718Z,68.69
2024-04-13T17:14:14.531Z,68.53
2024-04-13T17:16:41.340Z,68.50
2024-04-13T17:19:08.228Z,68.26
2024-04-13T17:21:35.276Z,68.55
2024-04-13T17:24:05.073Z,68.52
2024-04-13T17:26:31.951Z,68.64
2024-04-13T17:28:58.742Z,68.80
2024-04-13T17:31:25.935Z,69.29
2024-04-13T17:33:52.945Z,68.99
2024-04-13T17:36:21.119Z,69.11
2024-04-13T17:38:48.615Z,69.31
2024-04-13T17:41:18.075Z,69.26
2024-04-13T17:43:45.543Z,69.29
2024-04-13T17:46:12.372Z,69.32
2024-04-13T17:48:39.320Z,69.34
2024-04-13T17:51:06.368Z,69.67
2024-04-13T17:53:33.197Z,69.95
2024-04-13T17:55:59.986Z,70.10
2024-04-13T17:58:29.418Z,70.27
2024-04-13T18:00:56.328Z,70.10
2024-04-13T18:03:23.280Z,69.91
2024-04-13T18:05:50.215Z,70.19
2024-04-13T18:08:17.031Z,70.18
2024-04-13T18:10:44.565Z,70.16
2024-04-13T18:13:11.429Z,70.90
2024-04-13T18:15:41.043Z,70.54
2024-04-13T18:18:09.631Z,70.78
2024-04-13T18:20:36.535Z,71.23
2024-04-13T18:23:03.380Z,71.26
2024-04-13T18:25:30.298Z,71.39
2024-04-13T18:27:57.563Z,71.78
2024-04-13T18:30:24.686Z,71.65
2024-04-13T18:32:54.312Z,71.66
2024-04-13T18:35:21.169Z,72.05
2024-04-13T18:37:48.033Z,72.36
2024-04-13T18:40:14.986Z,72.19
2024-04-13T18:42:41.960Z,72.76
2024-04-13T18:45:09.055Z,72.49
2024-04-13T18:47:35.967Z,72.92
2024-04-13T18:50:06.161Z,72.94
2024-04-13T18:52:32.989Z,72.96
2024-04-13T18:54:59.922Z,73.33
2024-04-13T18:57:26.822Z,73.58
2024-04-13T18:59:53.684Z,73.72
2024-04-13T19:02:20.516Z,73.69
2024-04-13T19:04:47.592Z,73.91
2024-04-13T19:07:17.089Z,74.20
2024-04-13T19:09:43.966Z,74.55
2024-04-13T19:12:10.775Z,74.45
2024-04-13T19:14:37.604Z,74.86
2024-04-13T19:17:04.698Z,74.74
2024-04-13T19:19:31.681Z,75.14
2024-04-13T19:21:58.636Z,75.02
2024-04-13T19:24:28.217Z,74.94
2024-04-13T19:26:55.069Z,74.95
2024-04-13T19:29:21.857Z,75.10
2024-04-13T19:31:48.829Z,75.41
2024-04-13T19:34:15.930Z,75.53
2024-04-13T19:36:42.807Z,75.51
2024-04-13T19:39:11.007Z,75.89
2024-04-13T19:41:43.993Z,75.91
2024-04-13T19:44:11.360Z,75.94
2024-04-13T19:46:38.140Z,75.83
2024-04-13T19:49:04.934Z,76.11
2024-04-13T19:51:31.780Z,75.95
2024-04-13T19:53:58.747Z,76.44
2024-04-13T19:56:25.587Z,76.49
2024-04-13T19:58:55.060Z,76.61
2024-04-13T20:01:21.995Z,76.29
2024-04-13T20:03:49.155Z,76.40
2024-04-13T20:06:16.090Z,76.48
2024-04-13T20:08:43.180Z,77.09
2024-04-13T20:11:12.801Z,76.75
2024-04-13T20:13:41.077Z,76.83
2024-04-13T20:16:29.330Z,76.94
2024-04-13T20:18:56.186Z,77.32
2024-04-13T20:21:23.168Z,77.02
2024-04-13T20:23:49.972Z,77.09
2024-04-13T20:26:16.829Z,77.60
2024-04-13T20:28:45.141Z,77.19
2024-04-13T20:31:14.795Z,77.28
2024-04-13T20:33:43.197Z,77.71
2024-04-13T20:36:10.255Z,77.83
2024-04-13T20:38:37.278Z,77.74
2024-04-13T20:41:04.345Z,77.87
2024-04-13T20:43:31.239Z,77.58
2024-04-13T20:45:58.404Z,77.60
2024-04-13T20:48:27.953Z,77.75
2024-04-13T20:50:54.783Z,78.01
2024-04-13T20:53:21.923Z,77.67
2024-04-13T20:55:49.141Z,78.04
2024-04-13T20:58:16.102Z,78.21
2024-04-13T21:00:43.121Z,78.05
2024-04-13T21:03:10.086Z,78.35
2024-04-13T21:05:39.596Z,77.98
2024-04-13T21:08:06.876Z,78.27
2024-04-13T21:10:34.285Z,78.42
2024-04-13T21:13:02.450Z,78.65
2024-04-13T21:15:35.277Z,78.17
2024-04-13T21:18:04.231Z,78.60
2024-04-13T21:20:31.165Z,78.69
2024-04-13T21:23:01.078Z,78.15
2024-04-13T21:25:27.955Z,78.51
2024-04-13T21:27:54.860Z,78.39
2024-04-13T21:30:23.186Z,78.50
2024-04-13T21:32:50.171Z,78.60
2024-04-13T21:35:17.660Z,78.45
2024-04-13T21:37:44.651Z,78.34
2024-04-13T21:40:15.964Z,78.30
2024-04-13T21:42:42.674Z,78.31
2024-04-13T21:45:09.597Z,77.82
2024-04-13T21:47:36.415Z,77.96
2024-04-13T21:50:03.251Z,77.26
2024-04-13T21:52:31.170Z,77.11
2024-04-13T21:54:58.365Z,77.39
2024-04-13T21:57:27.919Z,76.75
2024-04-13T21:59:54.735Z,76.28
2024-04-13T22:02:21.552Z,75.90
2024-04-13T22:04:48.747Z,75.78
2024-04-13T22:07:17.744Z,75.78
2024-04-13T22:09:44.610Z,75.19
2024-04-13T22:12:14.531Z,75.27
2024-04-13T22:14:47.348Z,74.98
2024-04-13T22:17:14.356Z,74.98
2024-04-13T22:19:41.256Z,74.83
2024-04-13T22:22:09.775Z,74.65
2024-04-13T22:24:39.952Z,74.09
2024-04-13T22:27:06.849Z,74.15
2024-04-13T22:29:35.085Z,74.37
2024-04-13T22:32:05.212Z,73.82
2024-04-13T22:34:38.003Z,73.80
2024-04-13T22:37:05.382Z,73.36
2024-04-13T22:39:33.010Z,73.28
2024-04-13T22:42:01.056Z,73.06
2024-04-13T22:44:27.929Z,73.06
2024-04-13T22:46:54.751Z,72.72
2024-04-13T22:49:24.208Z,72.73
2024-04-13T22:51:51.037Z,73.05
2024-04-13T22:54:17.998Z,72.76
2024-04-13T22:56:44.811Z,72.94
2024-04-13T22:59:11.692Z,73.17
2024-04-13T23:01:38.567Z,72.98
2024-04-13T23:04:05.570Z,72.70
2024-04-13T23:06:35.257Z,72.89
2024-04-13T23:09:02.190Z,72.59
2024-04-13T23:11:29.089Z,72.78
2024-04-13T23:13:55.943Z,72.83
2024-04-13T23:16:23.557Z,72.52
2024-04-13T23:18:50.428Z,72.70
2024-04-13T23:21:17.418Z,72.38
2024-04-13T23:23:46.800Z,72.16
2024-04-13T23:26:13.642Z,72.77
2024-04-13T23:28:40.476Z,72.75
2024-04-13T23:31:07.337Z,72.34
2024-04-13T23:33:34.257Z,72.32
2024-04-13T23:36:01.821Z,72.19
2024-04-13T23:38:29.216Z,72.06
2024-04-13T23:40:58.726Z,72.38
2024-04-13T23:43:26.621Z,72.33
2024-04-13T23:46:03.872Z,72.35
2024-04-13T23:48:30.787Z,72.47
2024-04-13T23:50:57.671Z,72.27
2024-04-13T23:53:24.485Z,72.29
2024-04-13T23:55:53.017Z,72.22
2024-04-13T23:58:26.200Z,72.04
